Terminal Aerodrome Forecast
Issued by NWS

Current Version | Previous Version | Graphics & Text | Print | Product List | Glossary On
Versions: 1 2 3 4 5 6 7 8 9 10 11 12 13 14 15 16 17 18 19 20 21 22 23 24 25 26
000
FTUS41 KRLX 010857 AAB
TAFCKB
TAF AMD
KCKB 010857Z 0109/0206 34003KT 6SM BR BKN008 OVC015
      TEMPO 0109/0110 3SM -SHRA
     FM011400 36003KT P6SM OVC015
     FM012200 02004KT 5SM -SHRA BR OVC015=

USA.gov is the U.S. government's official web portal to all federal, state and local government web resources and services.